Portada
METAR-TAF:

METAR-TAF

Aeropuertos :

Delaware County Airport (Johnson Field)

Muncie, Indiana, Estados Unidos

latitud: 40-14-03N, longitud: 085-23-37W, altitud: 285 m

Observación

El informe se hizo hace 14 minutos, a las 20:53 UTC
Viento 3 kt con dirección variable
Temperatura 32°C
Humedad 52%
Presión 1023 hPa
Visibilidad: 16.1 km
Escasas nubes a una altura de 7500 ft
Escasas nubes a una altura de 10000 ft

METAR: KMIE 192053Z VRB03KT 10SM FEW075 FEW100 32/21 A3022 RMK AO2 SLP222 T03220211 58010

Hora: 17:07 (21:07 UTC)


TAF: falta

Observaciones y pronósticos meteorológicos de más de 4000 aeropuertos (mensajes METAR y TAF).

Los puntos amarillos y rojos representan las estaciones disponibles.

Ponga el ratón en el punto deseado para ver el nombre de la estación.

Haga clic para ver las observaciones y los pronósticos meteorológicos.

Para cambiar el mapa : haga clic en los botones verdes con una cruz de color negro para hacer un zoom, en el botón verde con un guión para alejar o en las flechas verdes para mapas adyacentes.


METAR-TAF: